sensor_id;sensor_type;location;lat;lon;timestamp;temperature;humidity
12720;DHT22;6424;48.520;11.228;2022-08-21T00:01:15;15.80;99.90
12720;DHT22;6424;48.520;11.228;2022-08-21T00:03:56;15.80;99.90
12720;DHT22;6424;48.520;11.228;2022-08-21T00:06:38;15.80;99.90
12720;DHT22;6424;48.520;11.228;2022-08-21T00:09:19;15.80;99.90
12720;DHT22;6424;48.520;11.228;2022-08-21T00:12:00;15.70;99.90
12720;DHT22;6424;48.520;11.228;2022-08-21T00:14:41;15.80;99.90
12720;DHT22;6424;48.520;11.228;2022-08-21T00:17:22;15.80;99.90
12720;DHT22;6424;48.520;11.228;2022-08-21T00:20:09;15.70;99.90
12720;DHT22;6424;48.520;11.228;2022-08-21T00:22:51;15.70;99.90
12720;DHT22;6424;48.520;11.228;2022-08-21T00:25:32;15.70;99.90
12720;DHT22;6424;48.520;11.228;2022-08-21T00:28:14;15.70;99.90
12720;DHT22;6424;48.520;11.228;2022-08-21T00:30:41;15.70;99.90
12720;DHT22;6424;48.520;11.228;2022-08-21T00:33:22;15.70;99.90
12720;DHT22;6424;48.520;11.228;2022-08-21T00:36:03;15.70;99.90
12720;DHT22;6424;48.520;11.228;2022-08-21T00:38:44;15.70;99.90
12720;DHT22;6424;48.520;11.228;2022-08-21T00:41:26;15.60;99.90
12720;DHT22;6424;48.520;11.228;2022-08-21T00:44:10;15.70;99.90
12720;DHT22;6424;48.520;11.228;2022-08-21T00:46:51;15.60;99.90
12720;DHT22;6424;48.520;11.228;2022-08-21T00:49:18;15.60;99.90
12720;DHT22;6424;48.520;11.228;2022-08-21T00:52:00;15.60;99.90
12720;DHT22;6424;48.520;11.228;2022-08-21T00:54:42;15.50;99.90
12720;DHT22;6424;48.520;11.228;2022-08-21T00:57:30;15.50;99.90
12720;DHT22;6424;48.520;11.228;2022-08-21T01:00:18;15.40;99.90
12720;DHT22;6424;48.520;11.228;2022-08-21T01:03:01;15.40;99.90
12720;DHT22;6424;48.520;11.228;2022-08-21T01:05:31;15.40;99.90
12720;DHT22;6424;48.520;11.228;2022-08-21T01:10:55;15.30;99.90
12720;DHT22;6424;48.520;11.228;2022-08-21T01:13:23;15.30;99.90
12720;DHT22;6424;48.520;11.228;2022-08-21T01:16:08;15.30;99.90
12720;DHT22;6424;48.520;11.228;2022-08-21T01:18:35;15.30;99.90
12720;DHT22;6424;48.520;11.228;2022-08-21T01:21:20;15.20;99.90
12720;DHT22;6424;48.520;11.228;2022-08-21T01:24:02;15.20;99.90
12720;DHT22;6424;48.520;11.228;2022-08-21T01:26:43;15.20;99.90
12720;DHT22;6424;48.520;11.228;2022-08-21T01:29:48;15.20;99.90
12720;DHT22;6424;48.520;11.228;2022-08-21T01:32:31;15.20;99.90
12720;DHT22;6424;48.520;11.228;2022-08-21T01:35:13;15.10;99.90
12720;DHT22;6424;48.520;11.228;2022-08-21T01:37:55;15.10;99.90
12720;DHT22;6424;48.520;11.228;2022-08-21T01:40:36;15.00;99.90
12720;DHT22;6424;48.520;11.228;2022-08-21T01:43:17;15.00;99.90
12720;DHT22;6424;48.520;11.228;2022-08-21T01:45:57;15.00;99.90
12720;DHT22;6424;48.520;11.228;2022-08-21T01:48:39;15.00;99.90
12720;DHT22;6424;48.520;11.228;2022-08-21T01:51:20;15.00;99.90
12720;DHT22;6424;48.520;11.228;2022-08-21T01:54:01;14.90;99.90
12720;DHT22;6424;48.520;11.228;2022-08-21T01:56:45;14.90;99.90
12720;DHT22;6424;48.520;11.228;2022-08-21T01:59:27;14.90;99.90
12720;DHT22;6424;48.520;11.228;2022-08-21T02:02:08;14.90;99.90
12720;DHT22;6424;48.520;11.228;2022-08-21T02:04:48;14.90;99.90
12720;DHT22;6424;48.520;11.228;2022-08-21T02:07:39;14.90;99.90
12720;DHT22;6424;48.520;11.228;2022-08-21T02:10:25;14.90;99.90
12720;DHT22;6424;48.520;11.228;2022-08-21T02:13:07;14.90;99.90
12720;DHT22;6424;48.520;11.228;2022-08-21T02:15:49;14.80;99.90
12720;DHT22;6424;48.520;11.228;2022-08-21T02:18:15;14.80;99.90
12720;DHT22;6424;48.520;11.228;2022-08-21T02:20:56;14.80;99.90
12720;DHT22;6424;48.520;11.228;2022-08-21T02:23:39;14.80;99.90
12720;DHT22;6424;48.520;11.228;2022-08-21T02:26:19;14.70;99.90
12720;DHT22;6424;48.520;11.228;2022-08-21T02:29:02;14.80;99.90
12720;DHT22;6424;48.520;11.228;2022-08-21T02:31:43;14.70;99.90
12720;DHT22;6424;48.520;11.228;2022-08-21T02:34:24;14.70;99.90
12720;DHT22;6424;48.520;11.228;2022-08-21T02:37:05;14.70;99.90
12720;DHT22;6424;48.520;11.228;2022-08-21T02:39:46;14.70;99.90
12720;DHT22;6424;48.520;11.228;2022-08-21T02:42:27;14.60;99.90
12720;DHT22;6424;48.520;11.228;2022-08-21T02:45:08;14.60;99.90
12720;DHT22;6424;48.520;11.228;2022-08-21T02:47:57;14.60;99.90
12720;DHT22;6424;48.520;11.228;2022-08-21T02:50:46;14.60;99.90
12720;DHT22;6424;48.520;11.228;2022-08-21T02:53:27;14.60;99.90
12720;DHT22;6424;48.520;11.228;2022-08-21T02:55:55;14.60;99.90
12720;DHT22;6424;48.520;11.228;2022-08-21T02:58:44;14.60;99.90
12720;DHT22;6424;48.520;11.228;2022-08-21T03:01:25;14.50;99.90
12720;DHT22;6424;48.520;11.228;2022-08-21T03:04:06;14.50;99.90
12720;DHT22;6424;48.520;11.228;2022-08-21T03:06:46;14.50;99.90
12720;DHT22;6424;48.520;11.228;2022-08-21T03:09:27;14.50;99.90
12720;DHT22;6424;48.520;11.228;2022-08-21T03:12:08;14.50;99.90
12720;DHT22;6424;48.520;11.228;2022-08-21T03:14:49;14.50;99.90
12720;DHT22;6424;48.520;11.228;2022-08-21T03:17:29;14.40;99.90
12720;DHT22;6424;48.520;11.228;2022-08-21T03:20:12;14.40;99.90
12720;DHT22;6424;48.520;11.228;2022-08-21T03:22:54;14.50;99.90
12720;DHT22;6424;48.520;11.228;2022-08-21T03:25:35;14.40;99.90
12720;DHT22;6424;48.520;11.228;2022-08-21T03:28:19;14.40;99.90
12720;DHT22;6424;48.520;11.228;2022-08-21T03:31:00;14.40;99.90
12720;DHT22;6424;48.520;11.228;2022-08-21T03:33:41;14.40;99.90
12720;DHT22;6424;48.520;11.228;2022-08-21T03:36:08;14.30;99.90
12720;DHT22;6424;48.520;11.228;2022-08-21T03:38:48;14.30;99.90
12720;DHT22;6424;48.520;11.228;2022-08-21T03:41:29;14.30;99.90
12720;DHT22;6424;48.520;11.228;2022-08-21T03:43:55;14.30;99.90
12720;DHT22;6424;48.520;11.228;2022-08-21T03:46:36;14.30;99.90
12720;DHT22;6424;48.520;11.228;2022-08-21T03:49:02;14.20;99.90
12720;DHT22;6424;48.520;11.228;2022-08-21T03:51:43;14.20;99.90
12720;DHT22;6424;48.520;11.228;2022-08-21T03:54:08;14.20;99.90
12720;DHT22;6424;48.520;11.228;2022-08-21T03:56:49;14.20;99.90
12720;DHT22;6424;48.520;11.228;2022-08-21T03:59:30;14.10;99.90
12720;DHT22;6424;48.520;11.228;2022-08-21T04:02:12;14.10;99.90
12720;DHT22;6424;48.520;11.228;2022-08-21T04:04:39;14.10;99.90
12720;DHT22;6424;48.520;11.228;2022-08-21T04:07:20;14.00;99.90
12720;DHT22;6424;48.520;11.228;2022-08-21T04:10:00;14.00;99.90
12720;DHT22;6424;48.520;11.228;2022-08-21T04:12:41;14.00;99.90
12720;DHT22;6424;48.520;11.228;2022-08-21T04:15:24;13.90;99.90
12720;DHT22;6424;48.520;11.228;2022-08-21T04:18:05;13.90;99.90
12720;DHT22;6424;48.520;11.228;2022-08-21T04:20:31;13.90;99.90
12720;DHT22;6424;48.520;11.228;2022-08-21T04:23:12;13.90;99.90
12720;DHT22;6424;48.520;11.228;2022-08-21T04:25:53;13.80;99.90
12720;DHT22;6424;48.520;11.228;2022-08-21T04:28:35;13.80;99.90
12720;DHT22;6424;48.520;11.228;2022-08-21T04:31:16;13.80;99.90
12720;DHT22;6424;48.520;11.228;2022-08-21T04:33:56;13.80;99.90
12720;DHT22;6424;48.520;11.228;2022-08-21T04:36:37;13.80;99.90
12720;DHT22;6424;48.520;11.228;2022-08-21T04:39:18;13.80;99.90
12720;DHT22;6424;48.520;11.228;2022-08-21T04:41:59;13.80;99.90
12720;DHT22;6424;48.520;11.228;2022-08-21T04:44:40;13.90;99.90
12720;DHT22;6424;48.520;11.228;2022-08-21T04:47:21;13.90;99.90
12720;DHT22;6424;48.520;11.228;2022-08-21T04:50:02;13.90;99.90
12720;DHT22;6424;48.520;11.228;2022-08-21T04:52:28;14.00;99.90
12720;DHT22;6424;48.520;11.228;2022-08-21T04:55:09;14.10;99.90
12720;DHT22;6424;48.520;11.228;2022-08-21T04:57:50;14.30;99.90
12720;DHT22;6424;48.520;11.228;2022-08-21T05:00:34;14.60;99.90
12720;DHT22;6424;48.520;11.228;2022-08-21T05:03:16;14.90;99.90
12720;DHT22;6424;48.520;11.228;2022-08-21T05:05:58;15.20;99.90
12720;DHT22;6424;48.520;11.228;2022-08-21T05:08:39;15.70;99.90
12720;DHT22;6424;48.520;11.228;2022-08-21T05:11:21;16.10;99.90
12720;DHT22;6424;48.520;11.228;2022-08-21T05:14:03;16.70;99.90
12720;DHT22;6424;48.520;11.228;2022-08-21T05:16:43;17.70;99.90
12720;DHT22;6424;48.520;11.228;2022-08-21T05:19:24;18.70;99.90
12720;DHT22;6424;48.520;11.228;2022-08-21T05:22:06;19.70;99.90
12720;DHT22;6424;48.520;11.228;2022-08-21T05:24:47;20.70;99.90
12720;DHT22;6424;48.520;11.228;2022-08-21T05:27:28;21.70;99.90
12720;DHT22;6424;48.520;11.228;2022-08-21T05:30:10;22.60;99.90
12720;DHT22;6424;48.520;11.228;2022-08-21T05:32:57;23.20;99.90
12720;DHT22;6424;48.520;11.228;2022-08-21T05:35:38;23.80;99.90
12720;DHT22;6424;48.520;11.228;2022-08-21T05:38:19;24.20;99.90
12720;DHT22;6424;48.520;11.228;2022-08-21T05:41:00;24.60;99.90
12720;DHT22;6424;48.520;11.228;2022-08-21T05:43:41;24.90;99.90
12720;DHT22;6424;48.520;11.228;2022-08-21T05:46:22;25.20;99.90
12720;DHT22;6424;48.520;11.228;2022-08-21T05:49:02;25.40;99.90
12720;DHT22;6424;48.520;11.228;2022-08-21T05:51:43;25.60;99.90
12720;DHT22;6424;48.520;11.228;2022-08-21T05:54:09;25.50;99.90
12720;DHT22;6424;48.520;11.228;2022-08-21T05:56:36;25.40;99.90
12720;DHT22;6424;48.520;11.228;2022-08-21T05:59:02;25.30;99.90
12720;DHT22;6424;48.520;11.228;2022-08-21T06:01:44;25.30;99.90
12720;DHT22;6424;48.520;11.228;2022-08-21T06:04:25;25.30;99.90
12720;DHT22;6424;48.520;11.228;2022-08-21T06:06:51;25.30;99.90
12720;DHT22;6424;48.520;11.228;2022-08-21T06:09:32;25.10;99.90
12720;DHT22;6424;48.520;11.228;2022-08-21T06:12:13;24.90;99.90
12720;DHT22;6424;48.520;11.228;2022-08-21T06:14:54;24.60;99.90
12720;DHT22;6424;48.520;11.228;2022-08-21T06:17:35;24.50;99.90
12720;DHT22;6424;48.520;11.228;2022-08-21T06:20:15;24.40;99.90
12720;DHT22;6424;48.520;11.228;2022-08-21T06:22:56;24.20;99.90
12720;DHT22;6424;48.520;11.228;2022-08-21T06:25:37;24.00;99.90
12720;DHT22;6424;48.520;11.228;2022-08-21T06:28:18;23.80;99.90
12720;DHT22;6424;48.520;11.228;2022-08-21T06:30:59;23.70;99.90
12720;DHT22;6424;48.520;11.228;2022-08-21T06:33:39;23.60;99.90
12720;DHT22;6424;48.520;11.228;2022-08-21T06:36:20;23.40;99.90
12720;DHT22;6424;48.520;11.228;2022-08-21T06:39:01;23.20;99.90
12720;DHT22;6424;48.520;11.228;2022-08-21T06:41:42;22.80;99.90
12720;DHT22;6424;48.520;11.228;2022-08-21T06:44:23;22.50;99.90
12720;DHT22;6424;48.520;11.228;2022-08-21T06:47:04;22.30;99.90
12720;DHT22;6424;48.520;11.228;2022-08-21T06:49:45;22.30;99.90
12720;DHT22;6424;48.520;11.228;2022-08-21T06:52:26;22.10;99.90
12720;DHT22;6424;48.520;11.228;2022-08-21T06:55:09;22.10;99.90
12720;DHT22;6424;48.520;11.228;2022-08-21T06:57:50;22.00;99.90
12720;DHT22;6424;48.520;11.228;2022-08-21T07:00:16;21.90;99.90
12720;DHT22;6424;48.520;11.228;2022-08-21T07:02:57;21.90;99.90
12720;DHT22;6424;48.520;11.228;2022-08-21T07:05:38;21.90;99.90
12720;DHT22;6424;48.520;11.228;2022-08-21T07:08:19;21.90;99.90
12720;DHT22;6424;48.520;11.228;2022-08-21T07:11:02;21.90;99.90
12720;DHT22;6424;48.520;11.228;2022-08-21T07:13:44;22.10;99.90
12720;DHT22;6424;48.520;11.228;2022-08-21T07:16:25;22.10;99.90
12720;DHT22;6424;48.520;11.228;2022-08-21T07:19:06;22.20;99.90
12720;DHT22;6424;48.520;11.228;2022-08-21T07:21:47;22.20;99.90
12720;DHT22;6424;48.520;11.228;2022-08-21T07:24:28;22.10;99.90
12720;DHT22;6424;48.520;11.228;2022-08-21T07:27:10;22.10;99.90
12720;DHT22;6424;48.520;11.228;2022-08-21T07:29:50;22.10;99.90
12720;DHT22;6424;48.520;11.228;2022-08-21T07:32:32;22.00;99.90
12720;DHT22;6424;48.520;11.228;2022-08-21T07:35:12;22.00;99.90
12720;DHT22;6424;48.520;11.228;2022-08-21T07:37:53;22.00;99.90
12720;DHT22;6424;48.520;11.228;2022-08-21T07:40:34;22.00;99.90
12720;DHT22;6424;48.520;11.228;2022-08-21T07:43:15;22.00;99.90
12720;DHT22;6424;48.520;11.228;2022-08-21T07:45:42;22.00;99.90
12720;DHT22;6424;48.520;11.228;2022-08-21T07:48:24;22.00;99.90
12720;DHT22;6424;48.520;11.228;2022-08-21T07:51:08;22.10;99.90
12720;DHT22;6424;48.520;11.228;2022-08-21T07:53:51;22.20;99.90
12720;DHT22;6424;48.520;11.228;2022-08-21T07:56:32;22.10;99.90
12720;DHT22;6424;48.520;11.228;2022-08-21T07:59:13;22.20;99.90
12720;DHT22;6424;48.520;11.228;2022-08-21T08:01:54;22.20;99.90
12720;DHT22;6424;48.520;11.228;2022-08-21T08:04:35;22.10;99.90
12720;DHT22;6424;48.520;11.228;2022-08-21T08:07:15;22.10;99.90
12720;DHT22;6424;48.520;11.228;2022-08-21T08:09:56;22.20;99.90
12720;DHT22;6424;48.520;11.228;2022-08-21T08:12:40;22.30;99.90
12720;DHT22;6424;48.520;11.228;2022-08-21T08:15:10;22.30;99.90
12720;DHT22;6424;48.520;11.228;2022-08-21T08:17:52;22.40;99.90
12720;DHT22;6424;48.520;11.228;2022-08-21T08:20:33;22.50;99.90
12720;DHT22;6424;48.520;11.228;2022-08-21T08:23:15;22.40;99.90
12720;DHT22;6424;48.520;11.228;2022-08-21T08:25:56;22.30;99.90
12720;DHT22;6424;48.520;11.228;2022-08-21T08:28:37;22.30;99.90
12720;DHT22;6424;48.520;11.228;2022-08-21T08:31:18;22.50;99.90
12720;DHT22;6424;48.520;11.228;2022-08-21T08:33:59;22.60;99.90
12720;DHT22;6424;48.520;11.228;2022-08-21T08:36:39;22.70;99.90
12720;DHT22;6424;48.520;11.228;2022-08-21T08:39:20;22.80;99.90
12720;DHT22;6424;48.520;11.228;2022-08-21T08:42:14;22.90;99.90
12720;DHT22;6424;48.520;11.228;2022-08-21T08:45:18;22.80;99.90
12720;DHT22;6424;48.520;11.228;2022-08-21T08:48:03;22.70;99.90
12720;DHT22;6424;48.520;11.228;2022-08-21T08:50:56;22.70;99.90
12720;DHT22;6424;48.520;11.228;2022-08-21T08:53:50;22.70;99.90
12720;DHT22;6424;48.520;11.228;2022-08-21T08:56:33;22.90;99.90
12720;DHT22;6424;48.520;11.228;2022-08-21T08:59:26;22.80;99.90
12720;DHT22;6424;48.520;11.228;2022-08-21T09:02:11;22.80;99.90
12720;DHT22;6424;48.520;11.228;2022-08-21T09:04:37;22.80;99.90
12720;DHT22;6424;48.520;11.228;2022-08-21T09:25:17;24.00;99.90
12720;DHT22;6424;48.520;11.228;2022-08-21T09:28:00;24.00;99.90
12720;DHT22;6424;48.520;11.228;2022-08-21T09:30:41;23.80;99.90
12720;DHT22;6424;48.520;11.228;2022-08-21T09:33:22;24.00;99.90
12720;DHT22;6424;48.520;11.228;2022-08-21T09:36:03;24.40;99.90
12720;DHT22;6424;48.520;11.228;2022-08-21T09:38:52;24.50;99.90
12720;DHT22;6424;48.520;11.228;2022-08-21T09:41:35;24.50;99.90
12720;DHT22;6424;48.520;11.228;2022-08-21T09:44:26;24.30;99.90
12720;DHT22;6424;48.520;11.228;2022-08-21T09:47:07;23.90;99.90
12720;DHT22;6424;48.520;11.228;2022-08-21T09:49:36;23.70;99.90
12720;DHT22;6424;48.520;11.228;2022-08-21T09:52:20;23.60;99.90
12720;DHT22;6424;48.520;11.228;2022-08-21T09:55:02;23.60;99.90
12720;DHT22;6424;48.520;11.228;2022-08-21T09:58:03;23.60;99.90
12720;DHT22;6424;48.520;11.228;2022-08-21T10:00:44;23.50;99.90
12720;DHT22;6424;48.520;11.228;2022-08-21T10:03:24;23.80;99.90
12720;DHT22;6424;48.520;11.228;2022-08-21T10:06:08;24.10;99.90
12720;DHT22;6424;48.520;11.228;2022-08-21T10:08:39;24.50;99.90
12720;DHT22;6424;48.520;11.228;2022-08-21T10:11:13;24.70;99.90
12720;DHT22;6424;48.520;11.228;2022-08-21T10:14:29;24.90;99.90
12720;DHT22;6424;48.520;11.228;2022-08-21T10:20:19;24.70;99.90
12720;DHT22;6424;48.520;11.228;2022-08-21T10:29:32;24.00;99.90
12720;DHT22;6424;48.520;11.228;2022-08-21T10:55:26;25.10;99.90
12720;DHT22;6424;48.520;11.228;2022-08-21T10:58:28;25.10;99.90
12720;DHT22;6424;48.520;11.228;2022-08-21T11:04:40;25.20;99.90
12720;DHT22;6424;48.520;11.228;2022-08-21T11:11:02;24.90;96.40
12720;DHT22;6424;48.520;11.228;2022-08-21T11:13:49;24.50;99.20
12720;DHT22;6424;48.520;11.228;2022-08-21T11:22:15;24.40;99.90
12720;DHT22;6424;48.520;11.228;2022-08-21T11:25:34;24.50;99.90
12720;DHT22;6424;48.520;11.228;2022-08-21T11:39:50;24.30;95.10
12720;DHT22;6424;48.520;11.228;2022-08-21T11:50:41;24.30;96.70
12720;DHT22;6424;48.520;11.228;2022-08-21T11:53:28;24.50;95.90
12720;DHT22;6424;48.520;11.228;2022-08-21T11:56:32;24.70;92.80
12720;DHT22;6424;48.520;11.228;2022-08-21T11:59:26;24.80;92.20
12720;DHT22;6424;48.520;11.228;2022-08-21T12:02:16;24.80;90.80
12720;DHT22;6424;48.520;11.228;2022-08-21T12:05:11;24.80;92.50
12720;DHT22;6424;48.520;11.228;2022-08-21T12:08:06;24.70;92.20
12720;DHT22;6424;48.520;11.228;2022-08-21T12:11:05;24.50;91.60
12720;DHT22;6424;48.520;11.228;2022-08-21T12:13:59;24.20;91.40
12720;DHT22;6424;48.520;11.228;2022-08-21T12:16:45;24.10;92.70
12720;DHT22;6424;48.520;11.228;2022-08-21T12:22:08;24.50;90.90
12720;DHT22;6424;48.520;11.228;2022-08-21T12:24:50;24.60;91.20
12720;DHT22;6424;48.520;11.228;2022-08-21T12:27:46;24.60;85.30
12720;DHT22;6424;48.520;11.228;2022-08-21T12:39:04;25.00;87.40
12720;DHT22;6424;48.520;11.228;2022-08-21T12:42:41;25.30;84.30
12720;DHT22;6424;48.520;11.228;2022-08-21T12:44:58;25.30;87.20
12720;DHT22;6424;48.520;11.228;2022-08-21T12:50:26;25.70;79.70
12720;DHT22;6424;48.520;11.228;2022-08-21T12:56:13;25.60;77.00
12720;DHT22;6424;48.520;11.228;2022-08-21T12:58:57;25.60;77.30
12720;DHT22;6424;48.520;11.228;2022-08-21T13:01:48;25.60;76.60
12720;DHT22;6424;48.520;11.228;2022-08-21T13:04:39;25.60;73.10
12720;DHT22;6424;48.520;11.228;2022-08-21T13:07:32;25.60;73.70
12720;DHT22;6424;48.520;11.228;2022-08-21T13:10:21;25.70;69.80
12720;DHT22;6424;48.520;11.228;2022-08-21T13:13:06;25.70;72.30
12720;DHT22;6424;48.520;11.228;2022-08-21T13:15:48;25.70;75.20
12720;DHT22;6424;48.520;11.228;2022-08-21T13:18:28;25.70;81.90
12720;DHT22;6424;48.520;11.228;2022-08-21T13:21:14;25.80;80.20
12720;DHT22;6424;48.520;11.228;2022-08-21T13:24:10;25.70;80.40
12720;DHT22;6424;48.520;11.228;2022-08-21T13:26:54;25.40;80.80
12720;DHT22;6424;48.520;11.228;2022-08-21T13:29:35;25.30;82.40
12720;DHT22;6424;48.520;11.228;2022-08-21T13:32:21;25.10;83.70
12720;DHT22;6424;48.520;11.228;2022-08-21T13:35:47;25.10;80.50
12720;DHT22;6424;48.520;11.228;2022-08-21T13:38:10;25.10;81.70
12720;DHT22;6424;48.520;11.228;2022-08-21T13:40:55;25.00;81.60
12720;DHT22;6424;48.520;11.228;2022-08-21T13:43:37;25.10;81.90
12720;DHT22;6424;48.520;11.228;2022-08-21T13:46:19;25.10;80.30
12720;DHT22;6424;48.520;11.228;2022-08-21T13:48:48;25.10;81.30
12720;DHT22;6424;48.520;11.228;2022-08-21T13:51:14;25.20;81.00
12720;DHT22;6424;48.520;11.228;2022-08-21T13:53:55;25.20;77.80
12720;DHT22;6424;48.520;11.228;2022-08-21T13:56:44;25.10;76.00
12720;DHT22;6424;48.520;11.228;2022-08-21T13:59:31;24.80;75.80
12720;DHT22;6424;48.520;11.228;2022-08-21T14:02:16;24.70;76.00
12720;DHT22;6424;48.520;11.228;2022-08-21T14:05:00;24.60;73.40
12720;DHT22;6424;48.520;11.228;2022-08-21T14:07:42;24.70;73.40
12720;DHT22;6424;48.520;11.228;2022-08-21T14:10:24;24.70;74.60
12720;DHT22;6424;48.520;11.228;2022-08-21T14:16:21;24.80;73.00
12720;DHT22;6424;48.520;11.228;2022-08-21T14:21:44;25.00;74.80
12720;DHT22;6424;48.520;11.228;2022-08-21T14:24:28;25.10;73.20
12720;DHT22;6424;48.520;11.228;2022-08-21T14:27:09;25.00;73.00
12720;DHT22;6424;48.520;11.228;2022-08-21T14:29:50;24.90;73.30
12720;DHT22;6424;48.520;11.228;2022-08-21T14:32:40;24.90;73.30
12720;DHT22;6424;48.520;11.228;2022-08-21T14:35:21;24.70;73.50
12720;DHT22;6424;48.520;11.228;2022-08-21T14:38:02;24.70;72.80
12720;DHT22;6424;48.520;11.228;2022-08-21T14:40:36;24.60;71.10
12720;DHT22;6424;48.520;11.228;2022-08-21T14:43:17;24.70;69.40
12720;DHT22;6424;48.520;11.228;2022-08-21T14:46:00;24.70;70.70
12720;DHT22;6424;48.520;11.228;2022-08-21T14:48:41;24.70;69.20
12720;DHT22;6424;48.520;11.228;2022-08-21T14:51:07;24.70;68.80
12720;DHT22;6424;48.520;11.228;2022-08-21T14:53:48;24.70;67.00
12720;DHT22;6424;48.520;11.228;2022-08-21T14:56:28;24.70;67.30
12720;DHT22;6424;48.520;11.228;2022-08-21T14:59:09;24.80;67.40
12720;DHT22;6424;48.520;11.228;2022-08-21T15:01:50;24.80;65.80
12720;DHT22;6424;48.520;11.228;2022-08-21T15:04:32;24.80;69.20
12720;DHT22;6424;48.520;11.228;2022-08-21T15:07:13;24.90;71.50
12720;DHT22;6424;48.520;11.228;2022-08-21T15:09:39;24.90;70.30
12720;DHT22;6424;48.520;11.228;2022-08-21T15:12:20;24.90;69.70
12720;DHT22;6424;48.520;11.228;2022-08-21T15:15:01;24.90;68.70
12720;DHT22;6424;48.520;11.228;2022-08-21T15:17:42;24.80;68.70
12720;DHT22;6424;48.520;11.228;2022-08-21T15:20:23;24.70;70.70
12720;DHT22;6424;48.520;11.228;2022-08-21T15:23:05;24.80;70.80
12720;DHT22;6424;48.520;11.228;2022-08-21T15:25:48;24.80;67.60
12720;DHT22;6424;48.520;11.228;2022-08-21T15:28:29;24.80;66.90
12720;DHT22;6424;48.520;11.228;2022-08-21T15:31:10;24.70;68.50
12720;DHT22;6424;48.520;11.228;2022-08-21T15:33:36;24.60;67.00
12720;DHT22;6424;48.520;11.228;2022-08-21T15:36:16;24.60;62.30
12720;DHT22;6424;48.520;11.228;2022-08-21T15:38:44;24.50;66.30
12720;DHT22;6424;48.520;11.228;2022-08-21T15:41:25;24.60;66.20
12720;DHT22;6424;48.520;11.228;2022-08-21T15:44:05;24.70;69.20
12720;DHT22;6424;48.520;11.228;2022-08-21T15:46:46;24.70;68.40
12720;DHT22;6424;48.520;11.228;2022-08-21T15:49:27;24.70;68.90
12720;DHT22;6424;48.520;11.228;2022-08-21T15:52:08;24.60;67.90
12720;DHT22;6424;48.520;11.228;2022-08-21T15:54:49;24.60;69.50
12720;DHT22;6424;48.520;11.228;2022-08-21T15:57:19;24.70;67.30
12720;DHT22;6424;48.520;11.228;2022-08-21T16:00:10;24.70;65.60
12720;DHT22;6424;48.520;11.228;2022-08-21T16:02:55;24.70;65.50
12720;DHT22;6424;48.520;11.228;2022-08-21T16:05:36;24.70;67.60
12720;DHT22;6424;48.520;11.228;2022-08-21T16:08:17;24.60;67.00
12720;DHT22;6424;48.520;11.228;2022-08-21T16:10:57;24.60;68.80
12720;DHT22;6424;48.520;11.228;2022-08-21T16:13:40;24.60;67.60
12720;DHT22;6424;48.520;11.228;2022-08-21T16:16:12;24.50;66.20
12720;DHT22;6424;48.520;11.228;2022-08-21T16:18:40;24.50;68.50
12720;DHT22;6424;48.520;11.228;2022-08-21T16:21:21;24.50;67.50
12720;DHT22;6424;48.520;11.228;2022-08-21T16:23:47;24.40;65.10
12720;DHT22;6424;48.520;11.228;2022-08-21T16:26:28;24.30;65.40
12720;DHT22;6424;48.520;11.228;2022-08-21T16:29:09;24.30;67.10
12720;DHT22;6424;48.520;11.228;2022-08-21T16:31:50;24.40;66.40
12720;DHT22;6424;48.520;11.228;2022-08-21T16:34:31;24.30;66.60
12720;DHT22;6424;48.520;11.228;2022-08-21T16:37:13;24.30;66.60
12720;DHT22;6424;48.520;11.228;2022-08-21T16:39:40;24.20;66.20
12720;DHT22;6424;48.520;11.228;2022-08-21T16:42:24;24.20;65.90
12720;DHT22;6424;48.520;11.228;2022-08-21T16:45:11;24.10;65.10
12720;DHT22;6424;48.520;11.228;2022-08-21T16:47:52;24.10;64.70
12720;DHT22;6424;48.520;11.228;2022-08-21T16:50:22;24.10;65.80
12720;DHT22;6424;48.520;11.228;2022-08-21T16:52:49;24.00;68.00
12720;DHT22;6424;48.520;11.228;2022-08-21T16:55:30;24.00;67.80
12720;DHT22;6424;48.520;11.228;2022-08-21T16:58:21;23.90;64.90
12720;DHT22;6424;48.520;11.228;2022-08-21T17:01:06;23.90;66.60
12720;DHT22;6424;48.520;11.228;2022-08-21T17:03:48;23.80;65.60
12720;DHT22;6424;48.520;11.228;2022-08-21T17:06:17;23.70;64.30
12720;DHT22;6424;48.520;11.228;2022-08-21T17:08:58;23.70;65.00
12720;DHT22;6424;48.520;11.228;2022-08-21T17:11:43;23.70;68.10
12720;DHT22;6424;48.520;11.228;2022-08-21T17:14:24;23.60;66.60
12720;DHT22;6424;48.520;11.228;2022-08-21T17:17:07;23.50;66.40
12720;DHT22;6424;48.520;11.228;2022-08-21T17:19:48;23.40;67.10
12720;DHT22;6424;48.520;11.228;2022-08-21T17:22:29;23.30;67.10
12720;DHT22;6424;48.520;11.228;2022-08-21T17:24:55;23.30;68.30
12720;DHT22;6424;48.520;11.228;2022-08-21T17:27:36;23.20;70.10
12720;DHT22;6424;48.520;11.228;2022-08-21T17:30:19;23.10;70.60
12720;DHT22;6424;48.520;11.228;2022-08-21T17:33:00;23.10;72.50
12720;DHT22;6424;48.520;11.228;2022-08-21T17:35:41;22.90;72.80
12720;DHT22;6424;48.520;11.228;2022-08-21T17:38:22;22.80;73.30
12720;DHT22;6424;48.520;11.228;2022-08-21T17:41:03;22.70;73.60
12720;DHT22;6424;48.520;11.228;2022-08-21T17:43:46;22.60;73.70
12720;DHT22;6424;48.520;11.228;2022-08-21T17:46:18;22.50;75.00
12720;DHT22;6424;48.520;11.228;2022-08-21T17:48:59;22.40;75.70
12720;DHT22;6424;48.520;11.228;2022-08-21T17:51:41;22.30;75.70
12720;DHT22;6424;48.520;11.228;2022-08-21T17:54:22;22.20;76.10
12720;DHT22;6424;48.520;11.228;2022-08-21T17:57:04;22.10;76.90
12720;DHT22;6424;48.520;11.228;2022-08-21T17:59:45;21.90;78.10
12720;DHT22;6424;48.520;11.228;2022-08-21T18:02:27;21.80;80.10
12720;DHT22;6424;48.520;11.228;2022-08-21T18:05:09;21.60;83.40
12720;DHT22;6424;48.520;11.228;2022-08-21T18:07:51;21.40;84.90
12720;DHT22;6424;48.520;11.228;2022-08-21T18:10:32;21.20;85.80
12720;DHT22;6424;48.520;11.228;2022-08-21T18:13:15;21.10;87.20
12720;DHT22;6424;48.520;11.228;2022-08-21T18:15:57;20.90;87.30
12720;DHT22;6424;48.520;11.228;2022-08-21T18:18:41;20.70;88.50
12720;DHT22;6424;48.520;11.228;2022-08-21T18:21:23;20.50;89.70
12720;DHT22;6424;48.520;11.228;2022-08-21T18:24:05;20.40;90.10
12720;DHT22;6424;48.520;11.228;2022-08-21T18:26:46;20.30;90.50
12720;DHT22;6424;48.520;11.228;2022-08-21T18:29:27;20.20;91.00
12720;DHT22;6424;48.520;11.228;2022-08-21T18:32:08;20.00;91.20
12720;DHT22;6424;48.520;11.228;2022-08-21T18:34:49;19.90;92.50
12720;DHT22;6424;48.520;11.228;2022-08-21T18:37:30;19.80;92.80
12720;DHT22;6424;48.520;11.228;2022-08-21T18:40:11;19.70;94.20
12720;DHT22;6424;48.520;11.228;2022-08-21T18:42:52;19.60;94.80
12720;DHT22;6424;48.520;11.228;2022-08-21T18:45:33;19.50;95.50
12720;DHT22;6424;48.520;11.228;2022-08-21T18:48:16;19.30;97.00